Terminal Aerodrome Forecast
Issued by NWS Newport/Morehead City, NC

Home | Current Version | Previous Version | Graphics & Text | Print | Product List | Glossary On
Versions: 1 2 3 4 5 6 7 8 9 10 11 12 13 14 15 16 17 18 19
000
FTUS42 KMHX 200500
TAFEWN
TAF
KEWN 200535Z 2006/2106 04003KT P6SM SCT050 BKN150
     FM201700 03006KT P6SM -RA SCT015 OVC040
     FM210100 01004KT P6SM BKN050=

USA.gov is the U.S. government's official web portal to all federal, state and local government web resources and services.